createdAt,value
2022-11-26T00:05:02.424Z,30.45
2022-11-26T00:10:13.952Z,30.90
2022-11-26T00:15:21.282Z,31.95
2022-11-26T00:20:29.095Z,27.90
2022-11-26T00:25:39.591Z,38.67
2022-11-26T00:30:44.122Z,33.72
2022-11-26T00:35:49.566Z,35.67
2022-11-26T00:45:57.373Z,30.02
2022-11-26T00:56:04.798Z,25.25
2022-11-26T01:01:12.452Z,30.58
2022-11-26T01:06:18.325Z,35.13
2022-11-26T01:11:23.410Z,30.23
2022-11-26T01:16:30.244Z,26.95
2022-11-26T01:21:33.498Z,35.80
2022-11-26T01:26:40.219Z,29.90
2022-11-26T01:31:45.117Z,28.27
2022-11-26T01:36:48.301Z,35.67
2022-11-26T01:41:59.688Z,27.90
2022-11-26T01:47:20.114Z,30.63
2022-11-26T01:52:25.475Z,27.15
2022-11-26T02:02:34.406Z,51.72
2022-11-26T02:07:38.793Z,34.65
2022-11-26T02:12:42.953Z,48.58
2022-11-26T02:17:52.247Z,37.58
2022-11-26T02:23:11.224Z,41.08
2022-11-26T02:28:33.441Z,28.73
2022-11-26T02:33:45.387Z,32.13
2022-11-26T02:38:48.812Z,42.42
2022-11-26T02:43:52.118Z,32.05
2022-11-26T02:48:56.761Z,39.97
2022-11-26T02:54:01.783Z,46.70
2022-11-26T02:59:05.742Z,38.80
2022-11-26T03:04:17.601Z,34.70
2022-11-26T03:09:22.817Z,56.45
2022-11-26T03:14:25.960Z,34.08
2022-11-26T03:19:30.560Z,34.47
2022-11-26T03:24:33.909Z,48.00
2022-11-26T03:29:37.127Z,46.00
2022-11-26T03:34:42.939Z,51.95
2022-11-26T03:39:46.577Z,43.95
2022-11-26T03:44:49.754Z,54.70
2022-11-26T03:49:54.480Z,53.70
2022-11-26T03:54:57.727Z,65.67
2022-11-26T04:00:00.923Z,63.42
2022-11-26T04:05:06.847Z,51.70
2022-11-26T04:10:10.758Z,56.22
2022-11-26T04:15:14.046Z,48.97
2022-11-26T04:20:19.033Z,47.85
2022-11-26T04:25:22.673Z,62.78
2022-11-26T04:30:30.020Z,72.85
2022-11-26T04:35:34.878Z,57.47
2022-11-26T04:40:38.416Z,59.80
2022-11-26T04:45:41.564Z,54.35
2022-11-26T04:50:46.087Z,57.00
2022-11-26T04:55:49.679Z,60.73
2022-11-26T05:00:53.129Z,49.15
2022-11-26T05:05:57.732Z,52.63
2022-11-26T05:11:03.050Z,58.20
2022-11-26T05:21:11.170Z,37.92
2022-11-26T05:26:14.419Z,56.17
2022-11-26T05:31:18.653Z,43.75
2022-11-26T05:36:23.161Z,43.53
2022-11-26T05:41:26.358Z,44.03
2022-11-26T05:46:29.761Z,41.53
2022-11-26T05:51:34.419Z,41.28
2022-11-26T05:56:37.586Z,45.22
2022-11-26T06:01:40.788Z,40.22
2022-11-26T06:06:45.667Z,36.17
2022-11-26T06:11:49.253Z,45.05
2022-11-26T06:16:52.475Z,46.30
2022-11-26T06:21:56.988Z,47.97
2022-11-26T06:27:00.274Z,47.40
2022-11-26T06:32:03.820Z,43.33
2022-11-26T06:37:08.375Z,41.85
2022-11-26T06:42:11.513Z,35.10
2022-11-26T06:47:14.962Z,35.33
2022-11-26T06:52:19.465Z,51.20
2022-11-26T06:57:22.606Z,41.27
2022-11-26T07:02:25.739Z,37.03
2022-11-26T07:07:30.583Z,30.77
2022-11-26T07:12:33.788Z,32.60
2022-11-26T07:17:36.911Z,27.25
2022-11-26T07:22:41.391Z,34.50
2022-11-26T07:27:45.490Z,33.07
2022-11-26T07:32:48.591Z,29.67
2022-11-26T07:37:56.012Z,36.20
2022-11-26T07:43:00.146Z,35.88
2022-11-26T07:48:04.613Z,30.83
2022-11-26T07:53:09.064Z,22.48
2022-11-26T07:58:12.282Z,38.67
2022-11-26T08:03:15.484Z,33.42
2022-11-26T08:08:20.058Z,39.17
2022-11-26T08:13:23.305Z,34.00
2022-11-26T08:18:26.506Z,23.40
2022-11-26T08:23:31.838Z,29.83
2022-11-26T08:33:39.404Z,45.20
2022-11-26T08:38:44.003Z,30.75
2022-11-26T08:49:15.138Z,34.75
2022-11-26T08:54:19.869Z,34.15
2022-11-26T08:59:24.311Z,24.42
2022-11-26T09:04:27.585Z,33.43
2022-11-26T09:09:32.105Z,23.98
2022-11-26T09:14:37.383Z,21.67
2022-11-26T09:19:40.856Z,24.17
2022-11-26T09:24:45.272Z,26.33
2022-11-26T09:29:48.417Z,19.98
2022-11-26T09:34:52.360Z,28.50
2022-11-26T09:39:56.830Z,29.17
2022-11-26T09:45:08.755Z,29.90
2022-11-26T09:50:22.279Z,29.48
2022-11-26T09:55:29.333Z,21.73
2022-11-26T10:00:35.048Z,26.80
2022-11-26T10:05:43.234Z,19.75
2022-11-26T10:10:54.727Z,27.10
2022-11-26T10:16:07.109Z,27.73
2022-11-26T10:21:37.910Z,27.58
2022-11-26T10:26:48.913Z,20.95
2022-11-26T10:31:56.902Z,21.27
2022-11-26T10:37:00.186Z,35.72
2022-11-26T10:42:13.480Z,24.15
2022-11-26T10:47:23.195Z,23.77
2022-11-26T10:52:28.835Z,27.10
2022-11-26T10:57:35.144Z,16.33
2022-11-26T11:02:41.239Z,21.35
2022-11-26T11:07:44.595Z,12.40
2022-11-26T11:12:50.995Z,24.63
2022-11-26T11:17:58.043Z,17.00
2022-11-26T11:23:20.362Z,21.63
2022-11-26T11:28:27.917Z,16.40
2022-11-26T11:33:31.822Z,15.63
2022-11-26T11:38:47.713Z,18.27
2022-11-26T11:43:57.328Z,19.92
2022-11-26T11:49:15.069Z,14.02
2022-11-26T11:54:22.410Z,18.55
2022-11-26T12:00:09.517Z,20.73
2022-11-26T12:05:53.604Z,16.02
2022-11-26T12:11:10.147Z,14.70
2022-11-26T12:16:17.028Z,18.98
2022-11-26T12:21:30.904Z,15.13
2022-11-26T12:26:38.446Z,20.88
2022-11-26T12:31:47.119Z,22.33
2022-11-26T12:36:56.504Z,19.52
2022-11-26T12:42:04.180Z,14.07
2022-11-26T12:47:17.251Z,47.05
2022-11-26T12:52:31.169Z,20.20
2022-11-26T12:57:38.249Z,27.45
2022-11-26T13:02:46.649Z,28.65
2022-11-26T13:08:13.532Z,16.88
2022-11-26T13:13:22.919Z,23.85
2022-11-26T13:18:33.578Z,19.90
2022-11-26T13:23:54.095Z,24.80
2022-11-26T13:29:18.575Z,35.17
2022-11-26T13:34:36.813Z,26.73
2022-11-26T13:39:56.345Z,30.13
2022-11-26T13:45:12.967Z,22.63
2022-11-26T13:50:23.649Z,24.48
2022-11-26T13:55:31.728Z,24.17
2022-11-26T14:00:36.371Z,30.00
2022-11-26T14:06:09.202Z,17.77
2022-11-26T14:11:33.645Z,19.05
2022-11-26T14:17:13.381Z,22.33
2022-11-26T14:22:27.781Z,31.15
2022-11-26T14:27:33.655Z,13.50
2022-11-26T14:32:43.142Z,21.02
2022-11-26T14:37:52.567Z,18.55
2022-11-26T14:43:13.277Z,17.02
2022-11-26T14:48:24.537Z,19.08
2022-11-26T14:53:31.839Z,25.88
2022-11-26T14:58:39.472Z,17.50
2022-11-26T15:03:53.941Z,18.05
2022-11-26T15:09:15.176Z,26.67
2022-11-26T15:14:25.649Z,30.73
2022-11-26T15:19:32.691Z,17.05
2022-11-26T15:24:36.729Z,23.15
2022-11-26T15:29:42.708Z,27.05
2022-11-26T15:34:47.506Z,33.88
2022-11-26T15:40:10.472Z,31.90
2022-11-26T15:45:15.133Z,38.10
2022-11-26T15:50:28.894Z,31.83
2022-11-26T15:55:36.534Z,24.80
2022-11-26T16:00:41.762Z,24.05
2022-11-26T16:05:54.312Z,27.73
2022-11-26T16:11:05.181Z,22.70
2022-11-26T16:16:14.513Z,19.98
2022-11-26T16:21:24.390Z,24.98
2022-11-26T16:26:28.523Z,20.42
2022-11-26T16:31:32.393Z,16.08
2022-11-26T16:36:42.157Z,30.25
2022-11-26T16:41:45.421Z,27.38
2022-11-26T16:46:51.976Z,18.83
2022-11-26T16:51:56.577Z,28.40
2022-11-26T16:56:59.816Z,35.47
2022-11-26T17:02:03.100Z,24.63
2022-11-26T17:07:08.727Z,23.95
2022-11-26T17:12:16.169Z,22.00
2022-11-26T17:17:23.962Z,20.92
2022-11-26T17:22:29.925Z,19.35
2022-11-26T17:27:33.296Z,14.43
2022-11-26T17:32:36.495Z,18.02
2022-11-26T17:37:41.731Z,25.08
2022-11-26T17:42:45.201Z,15.27
2022-11-26T17:47:48.598Z,32.33
2022-11-26T17:52:54.545Z,29.38
2022-11-26T17:57:58.401Z,21.73
2022-11-26T18:03:01.741Z,28.88
2022-11-26T18:08:06.520Z,17.25
2022-11-26T18:13:09.687Z,24.70
2022-11-26T18:18:12.876Z,15.45
2022-11-26T18:23:17.709Z,27.70
2022-11-26T18:28:21.032Z,23.83
2022-11-26T18:33:24.182Z,23.85
2022-11-26T18:38:31.370Z,25.77
2022-11-26T18:43:36.847Z,31.30
2022-11-26T18:48:40.218Z,30.02
2022-11-26T18:53:46.040Z,33.40
2022-11-26T18:58:50.426Z,19.73
2022-11-26T19:03:54.544Z,22.95
2022-11-26T19:09:01.910Z,24.50
2022-11-26T19:14:05.101Z,26.75
2022-11-26T19:19:08.507Z,30.85
2022-11-26T19:24:13.225Z,28.10
2022-11-26T19:29:16.376Z,26.77
2022-11-26T19:34:19.576Z,32.75
2022-11-26T19:39:24.357Z,22.55
2022-11-26T19:44:27.629Z,29.20
2022-11-26T19:49:30.933Z,28.77
2022-11-26T19:54:35.906Z,27.27
2022-11-26T19:59:39.972Z,24.38
2022-11-26T20:04:43.575Z,26.17
2022-11-26T20:09:50.917Z,23.33
2022-11-26T20:14:54.119Z,23.33
2022-11-26T20:19:57.615Z,24.75
2022-11-26T20:32:12.694Z,27.30
2022-11-26T20:37:23.021Z,26.83
2022-11-26T20:42:26.179Z,19.70
2022-11-26T20:47:30.755Z,24.27
2022-11-26T20:52:34.303Z,24.93
2022-11-26T20:57:37.799Z,31.15
2022-11-26T21:02:42.550Z,31.70
2022-11-26T21:07:46.045Z,23.48
2022-11-26T21:12:49.571Z,32.55
2022-11-26T21:17:54.073Z,28.30
2022-11-26T21:22:57.238Z,29.73
2022-11-26T21:28:00.483Z,27.55
2022-11-26T21:33:09.299Z,24.90
2022-11-26T21:38:12.949Z,31.30
2022-11-26T21:43:16.094Z,25.85
2022-11-26T21:48:20.688Z,24.42
2022-11-26T21:53:24.580Z,24.97
2022-11-26T21:58:27.921Z,29.60
2022-11-26T22:03:35.000Z,27.10
2022-11-26T22:08:39.295Z,31.00
2022-11-26T22:13:42.618Z,37.22
2022-11-26T22:18:47.758Z,41.97
2022-11-26T22:23:51.503Z,41.95
2022-11-26T22:28:55.772Z,25.10
2022-11-26T22:34:02.354Z,34.72
2022-11-26T22:39:11.015Z,30.60
2022-11-26T22:44:15.708Z,42.33
2022-11-26T22:49:22.124Z,28.38
2022-11-26T22:54:25.585Z,28.05
2022-11-26T22:59:29.378Z,31.05
2022-11-26T23:04:34.475Z,29.88
2022-11-26T23:09:39.417Z,22.83
2022-11-26T23:14:45.560Z,27.65
2022-11-26T23:19:50.264Z,34.20
2022-11-26T23:24:53.367Z,23.38
2022-11-26T23:29:58.134Z,26.70
2022-11-26T23:35:03.002Z,40.75
2022-11-26T23:40:07.943Z,23.85
2022-11-26T23:45:11.536Z,21.13
2022-11-26T23:50:16.181Z,26.58
2022-11-26T23:55:34.622Z,44.33
